Miedwie — C6XP5 — position and weather

sailwx.info

Track history (hours):
 
Tides and Currents Weather Stations Pressure Air Temp Water Temp Dewpoint Dewpoint Depression Visibility Wind Speed Wind Dir Waves Ship Positions

Miedwie

Last reported at 2017-Aug-14 01:27 UTC. Time now 2017-Aug-20 21:10 UTC.
Position N 36°25' E 014°47'.

Length 190 m; draft 6.7 m.

Type: Cargo ship. MMSI: 311018300.

Date/timePositionNaut miles runAvg speedWind from/ knotsBaromVisibWave heightAir tempDewpointWater temp
2017-Aug-14 01:27N 36°25' E 014°47'912.0
2017-Aug-14 00:40N 36°27' E 014°36'211.8
2017-Aug-14 00:30N 36°28' E 014°33'611.6
2017-Aug-13 23:58N 36°29' E 014°26'511.4
2017-Aug-13 23:30N 36°30' E 014°19'611.3
2017-Aug-13 23:00N 36°31' E 014°13'611.2
2017-Aug-13 22:30N 36°32' E 014°06'611.2
2017-Aug-13 22:00N 36°34' E 013°59'611.4
2017-Aug-13 21:30N 36°35' E 013°52'611.6
2017-Aug-13 21:00N 36°37' E 013°45'611.6
2017-Aug-13 20:30N 36°39' E 013°38'611.6
2017-Aug-13 20:00N 36°40' E 013°31'611.8
2017-Aug-13 19:30N 36°41' E 013°24'612.0
2017-Aug-13 18:59N 36°42' E 013°17'1712.1
2017-Aug-13 17:33N 36°47' E 012°56'112.3
2017-Aug-13 17:30N 36°47' E 012°55'612.2
2017-Aug-13 17:00N 36°49' E 012°47'612.2
2017-Aug-13 16:30N 36°50' E 012°40'  
2017-Aug-04 22:08N 37°17' E 009°54'9 0.5
2017-Aug-04 04:20N 37°26' E 009°52'411.1
2017-Aug-04 03:59N 37°27' E 009°47'  
Track history (hours):
 
Tides and Currents Weather Stations Pressure Air Temp Water Temp Dewpoint Dewpoint Depression Visibility Wind Speed Wind Dir Waves Ship Positions

Miedwie

Last reported at 2017-Aug-14 01:27 UTC. Time now 2017-Aug-20 21:10 UTC.
Position N 36°25' E 014°47'.

Length 190 m; draft 6.7 m.

Type: Cargo ship. MMSI: 311018300.

Date/timePositionNaut miles runAvg speedWind from/ knotsBaromVisibWave heightAir tempDewpointWater temp
2017-Aug-14 01:27N 36°25' E 014°47'912.0
2017-Aug-14 00:40N 36°27' E 014°36'211.8
2017-Aug-14 00:30N 36°28' E 014°33'611.6
2017-Aug-13 23:58N 36°29' E 014°26'511.4
2017-Aug-13 23:30N 36°30' E 014°19'611.3
2017-Aug-13 23:00N 36°31' E 014°13'611.2
2017-Aug-13 22:30N 36°32' E 014°06'611.2
2017-Aug-13 22:00N 36°34' E 013°59'611.4
2017-Aug-13 21:30N 36°35' E 013°52'611.6
2017-Aug-13 21:00N 36°37' E 013°45'611.6
2017-Aug-13 20:30N 36°39' E 013°38'611.6
2017-Aug-13 20:00N 36°40' E 013°31'611.8
2017-Aug-13 19:30N 36°41' E 013°24'612.0
2017-Aug-13 18:59N 36°42' E 013°17'1712.1
2017-Aug-13 17:33N 36°47' E 012°56'112.3
2017-Aug-13 17:30N 36°47' E 012°55'612.2
2017-Aug-13 17:00N 36°49' E 012°47'612.2
2017-Aug-13 16:30N 36°50' E 012°40'  
2017-Aug-04 22:08N 37°17' E 009°54'9 0.5
2017-Aug-04 04:20N 37°26' E 009°52'411.1
2017-Aug-04 03:59N 37°27' E 009°47'  

Dump ship's entire track history